Wetterdaten: Freitag, 29.06.2012
Datum Zeit Temperatur Luftfeuchte Regen Wind Richtung Richtung Taupunkt Windchill Windben
29.06.2012 00:00 19,0 C 71 % 0,0 l/m 0,5 km/h (0 Bft) O-SO 112 13,6 C 19,8 C 0,0 km/h (0 Bft)
29.06.2012 00:05 18,9 C 72 % 0,0 l/m 0,5 km/h (0 Bft) W-SW 247 13,7 C 19,7 C 3,9 km/h (1 Bft)
29.06.2012 00:10 18,7 C 72 % 0,0 l/m 0,8 km/h (0 Bft) SO 135 13,5 C 19,6 C 0,0 km/h (0 Bft)
29.06.2012 00:15 18,7 C 73 % 0,0 l/m 0,8 km/h (0 Bft) N-NO 22 13,8 C 19,5 C 2,1 km/h (1 Bft)
29.06.2012 00:20 18,6 C 72 % 0,0 l/m 0,6 km/h (0 Bft) S-SW 202 13,4 C 19,4 C 3,4 km/h (1 Bft)
29.06.2012 00:25 18,6 C 73 % 0,0 l/m 0,6 km/h (0 Bft) NO 45 13,7 C 19,3 C 0,0 km/h (0 Bft)
29.06.2012 00:30 18,6 C 73 % 0,0 l/m 0,5 km/h (0 Bft) N 360 13,7 C 19,3 C 4,0 km/h (1 Bft)
29.06.2012 00:35 18,6 C 73 % 0,0 l/m 0,6 km/h (0 Bft) S 180 13,7 C 19,4 C 1,6 km/h (1 Bft)
29.06.2012 00:40 18,6 C 73 % 0,0 l/m 0,6 km/h (0 Bft) N-NO 22 13,7 C 19,3 C 0,0 km/h (0 Bft)
29.06.2012 00:45 18,5 C 73 % 0,0 l/m 0,3 km/h (0 Bft) S-SO 157 13,6 C 19,2 C 0,0 km/h (0 Bft)
29.06.2012 00:50 18,2 C 73 % 0,0 l/m 0,3 km/h (0 Bft) S 180 13,3 C 18,9 C 0,0 km/h (0 Bft)
29.06.2012 00:55 18,1 C 73 % 0,0 l/m 0,3 km/h (0 Bft) SO 135 13,2 C 18,7 C 2,4 km/h (1 Bft)
29.06.2012 01:00 17,8 C 73 % 0,0 l/m 0,3 km/h (0 Bft) O 90 12,9 C 18,5 C 0,0 km/h (0 Bft)
29.06.2012 01:05 17,8 C 73 % 0,0 l/m 0,5 km/h (0 Bft) S-SW 202 12,9 C 18,3 C 1,9 km/h (1 Bft)
29.06.2012 01:10 17,7 C 75 % 0,0 l/m 0,6 km/h (0 Bft) S 180 13,2 C 18,0 C 3,2 km/h (1 Bft)
29.06.2012 01:15 17,6 C 74 % 0,0 l/m 0,5 km/h (0 Bft) N-NO 22 12,9 C 17,9 C 0,0 km/h (0 Bft)
29.06.2012 01:20 17,4 C 74 % 0,0 l/m 0,3 km/h (0 Bft) S-SW 202 12,7 C 17,7 C 1,8 km/h (1 Bft)
29.06.2012 01:25 17,5 C 75 % 0,0 l/m 0,5 km/h (0 Bft) S-SW 202 13,0 C 17,7 C 2,6 km/h (1 Bft)
29.06.2012 01:30 17,3 C 75 % 0,0 l/m 1,0 km/h (0 Bft) N 360 12,8 C 17,7 C 1,8 km/h (1 Bft)
29.06.2012 01:35 17,5 C 75 % 0,0 l/m 1,0 km/h (0 Bft) S 180 13,0 C 17,6 C 2,9 km/h (1 Bft)
29.06.2012 01:40 17,3 C 75 % 0,0 l/m 1,0 km/h (0 Bft) W-NW 292 12,8 C 17,6 C 5,1 km/h (1 Bft)
29.06.2012 01:45 17,3 C 75 % 0,0 l/m 0,8 km/h (0 Bft) NO 45 12,8 C 17,6 C 0,0 km/h (0 Bft)
29.06.2012 01:50 17,3 C 75 % 0,0 l/m 0,3 km/h (0 Bft) O 90 12,8 C 17,6 C 0,0 km/h (0 Bft)
29.06.2012 01:55 17,3 C 74 % 0,0 l/m 0,0 km/h (0 Bft) N-NO 22 12,6 C 17,4 C 0,0 km/h (0 Bft)
29.06.2012 02:00 17,3 C 74 % 0,0 l/m 0,2 km/h (0 Bft) NO 45 12,6 C 17,5 C 0,0 km/h (0 Bft)
29.06.2012 02:05 17,1 C 74 % 0,0 l/m 0,2 km/h (0 Bft) S 180 12,4 C 17,4 C 0,0 km/h (0 Bft)
29.06.2012 02:10 17,1 C 74 % 0,0 l/m 0,8 km/h (0 Bft) S-SW 202 12,4 C 17,4 C 4,0 km/h (1 Bft)
29.06.2012 02:15 17,3 C 75 % 0,0 l/m 1,1 km/h (1 Bft) N-NO 22 12,8 C 17,6 C 0,0 km/h (0 Bft)
29.06.2012 02:20 17,4 C 75 % 0,0 l/m 0,8 km/h (0 Bft) N 360 12,9 C 17,6 C 1,6 km/h (1 Bft)
29.06.2012 02:25 17,4 C 75 % 0,0 l/m 0,5 km/h (0 Bft) N 360 12,9 C 17,6 C 0,0 km/h (0 Bft)
29.06.2012 02:30 17,0 C 75 % 0,0 l/m 0,5 km/h (0 Bft) SO 135 12,5 C 17,6 C 0,0 km/h (0 Bft)
29.06.2012 02:35 17,1 C 75 % 0,0 l/m 0,5 km/h (0 Bft) S 180 12,6 C 17,6 C 0,0 km/h (0 Bft)
29.06.2012 02:40 17,1 C 75 % 0,0 l/m 0,5 km/h (0 Bft) NO 45 12,6 C 17,7 C 5,3 km/h (1 Bft)
29.06.2012 02:45 17,0 C 75 % 0,0 l/m 0,6 km/h (0 Bft) SO 135 12,5 C 17,8 C 2,1 km/h (1 Bft)
29.06.2012 02:50 17,4 C 75 % 0,0 l/m 0,8 km/h (0 Bft) O-SO 112 12,9 C 17,9 C 0,0 km/h (0 Bft)
29.06.2012 02:55 17,4 C 74 % 0,0 l/m 0,6 km/h (0 Bft) S-SO 157 12,7 C 17,9 C 1,6 km/h (1 Bft)
29.06.2012 03:00 17,3 C 75 % 0,0 l/m 0,5 km/h (0 Bft) S-SO 157 12,8 C 17,9 C 0,0 km/h (0 Bft)
29.06.2012 03:05 17,4 C 75 % 0,0 l/m 0,8 km/h (0 Bft) O-SO 112 12,9 C 18,0 C 3,9 km/h (1 Bft)
29.06.2012 03:10 17,5 C 74 % 0,0 l/m 0,8 km/h (0 Bft) SO 135 12,8 C 18,4 C 1,9 km/h (1 Bft)
29.06.2012 03:15 17,7 C 74 % 0,0 l/m 0,5 km/h (0 Bft) S 180 13,0 C 18,4 C 0,0 km/h (0 Bft)
29.06.2012 03:20 17,9 C 74 % 0,0 l/m 0,2 km/h (0 Bft) W 270 13,2 C 18,4 C 0,0 km/h (0 Bft)
29.06.2012 03:25 18,0 C 73 % 0,0 l/m 0,2 km/h (0 Bft) S-SO 157 13,1 C 18,4 C 2,9 km/h (1 Bft)
29.06.2012 03:30 18,3 C 71 % 0,0 l/m 1,4 km/h (1 Bft) N 360 12,9 C 18,4 C 2,7 km/h (1 Bft)
29.06.2012 03:35 18,2 C 72 % 0,0 l/m 2,1 km/h (1 Bft) N 360 13,1 C 18,4 C 2,3 km/h (1 Bft)
29.06.2012 03:40 17,9 C 72 % 0,0 l/m 1,4 km/h (1 Bft) O-NO 67 12,8 C 18,2 C 0,0 km/h (0 Bft)
29.06.2012 03:45 17,8 C 72 % 0,0 l/m 1,3 km/h (1 Bft) O-SO 112 12,7 C 18,2 C 3,1 km/h (1 Bft)
29.06.2012 03:50 17,8 C 72 % 0,0 l/m 1,0 km/h (0 Bft) N 360 12,7 C 18,1 C 0,0 km/h (0 Bft)
29.06.2012 03:55 17,4 C 72 % 0,0 l/m 0,6 km/h (0 Bft) W 270 12,3 C 17,9 C 0,0 km/h (0 Bft)
29.06.2012 04:00 17,4 C 73 % 0,0 l/m 1,0 km/h (0 Bft) NO 45 12,5 C 17,8 C 0,0 km/h (0 Bft)
29.06.2012 04:05 17,3 C 73 % 0,0 l/m 1,0 km/h (0 Bft) N-NO 22 12,4 C 17,8 C 1,8 km/h (1 Bft)
29.06.2012 04:10 17,0 C 73 % 0,0 l/m 0,6 km/h (0 Bft) SO 135 12,1 C 17,5 C 5,1 km/h (1 Bft)
29.06.2012 04:15 17,2 C 73 % 0,0 l/m 1,4 km/h (1 Bft) O-SO 112 12,3 C 17,5 C 1,8 km/h (1 Bft)
29.06.2012 04:20 17,2 C 72 % 0,0 l/m 1,4 km/h (1 Bft) W-SW 247 12,1 C 17,2 C 6,1 km/h (2 Bft)
29.06.2012 04:25 16,6 C 73 % 0,0 l/m 0,6 km/h (0 Bft) N-NO 22 11,7 C 17,1 C 0,0 km/h (0 Bft)
29.06.2012 04:30 16,4 C 74 % 0,0 l/m 0,0 km/h (0 Bft) W 270 11,8 C 16,5 C 0,0 km/h (0 Bft)
29.06.2012 04:35 16,2 C 75 % 0,0 l/m 0,0 km/h (0 Bft) NW 315 11,8 C 16,3 C 2,1 km/h (1 Bft)
29.06.2012 04:40 16,3 C 75 % 0,0 l/m 0,2 km/h (0 Bft) NW 315 11,9 C 16,3 C 0,0 km/h (0 Bft)
29.06.2012 04:45 16,3 C 75 % 0,0 l/m 0,2 km/h (0 Bft) N-NO 22 11,9 C 16,3 C 0,0 km/h (0 Bft)
29.06.2012 04:50 16,1 C 75 % 0,0 l/m 0,0 km/h (0 Bft) N-NO 22 11,7 C 16,1 C 0,0 km/h (0 Bft)
29.06.2012 04:55 16,0 C 75 % 0,0 l/m 0,0 km/h (0 Bft) SO 135 11,6 C 15,9 C 0,0 km/h (0 Bft)
29.06.2012 05:00 15,9 C 76 % 0,0 l/m 0,2 km/h (0 Bft) W-SW 247 11,7 C 15,7 C 0,0 km/h (0 Bft)
29.06.2012 05:05 16,0 C 75 % 0,0 l/m 0,2 km/h (0 Bft) S-SW 202 11,6 C 15,7 C 0,0 km/h (0 Bft)
29.06.2012 05:10 16,1 C 76 % 0,0 l/m 0,0 km/h (0 Bft) N-NO 22 11,9 C 15,7 C 0,0 km/h (0 Bft)
29.06.2012 05:15 16,2 C 76 % 0,0 l/m 0,0 km/h (0 Bft) S-SO 157 12,0 C 15,8 C 0,0 km/h (0 Bft)
29.06.2012 05:20 16,1 C 76 % 0,0 l/m 0,0 km/h (0 Bft) S-SO 157 11,9 C 15,9 C 0,0 km/h (0 Bft)
29.06.2012 05:25 16,2 C 76 % 0,0 l/m 0,0 km/h (0 Bft) N-NO 22 12,0 C 15,9 C 0,0 km/h (0 Bft)
29.06.2012 05:30 16,2 C 76 % 0,0 l/m 0,0 km/h (0 Bft) SO 135 12,0 C 16,1 C 0,0 km/h (0 Bft)
29.06.2012 05:35 16,3 C 76 % 0,0 l/m 0,0 km/h (0 Bft) S 180 12,1 C 16,1 C 0,0 km/h (0 Bft)
29.06.2012 05:40 16,7 C 76 % 0,0 l/m 2,1 km/h (1 Bft) SO 135 12,4 C 16,4 C 15,1 km/h (3 Bft)
29.06.2012 05:45 17,0 C 74 % 0,0 l/m 3,4 km/h (1 Bft) O-SO 112 12,3 C 16,6 C 6,4 km/h (2 Bft)
29.06.2012 05:50 17,5 C 74 % 0,0 l/m 3,7 km/h (1 Bft) N-NO 22 12,8 C 17,3 C 2,7 km/h (1 Bft)
29.06.2012 05:55 17,9 C 76 % 0,0 l/m 3,2 km/h (1 Bft) SO 135 13,6 C 17,8 C 6,0 km/h (2 Bft)
29.06.2012 06:00 18,3 C 75 % 0,0 l/m 3,5 km/h (1 Bft) N-NO 22 13,8 C 18,2 C 5,6 km/h (1 Bft)
29.06.2012 06:05 18,8 C 74 % 0,0 l/m 4,0 km/h (1 Bft) N-NO 22 14,1 C 18,4 C 6,4 km/h (2 Bft)
29.06.2012 06:10 18,5 C 74 % 0,0 l/m 4,2 km/h (1 Bft) NO 45 13,8 C 18,7 C 1,9 km/h (1 Bft)
29.06.2012 06:15 18,3 C 74 % 0,0 l/m 2,4 km/h (1 Bft) NW 315 13,6 C 18,7 C 0,0 km/h (0 Bft)
29.06.2012 06:20 18,1 C 75 % 0,0 l/m 1,3 km/h (1 Bft) O-SO 112 13,6 C 18,5 C 5,0 km/h (1 Bft)
29.06.2012 06:25 18,3 C 75 % 0,0 l/m 2,1 km/h (1 Bft) SO 135 13,8 C 18,5 C 10,6 km/h (2 Bft)
29.06.2012 06:30 17,5 C 78 % 0,0 l/m 10,9 km/h (2 Bft) O-SO 112 13,6 C 16,3 C 30,4 km/h (5 Bft)
29.06.2012 06:35 15,8 C 85 % 2,1 l/m 17,2 km/h (3 Bft) SO 135 13,3 C 11,6 C 18,8 km/h (3 Bft)
29.06.2012 06:40 15,5 C 87 % 2,7 l/m 14,0 km/h (3 Bft) SO 135 13,3 C 11,5 C 37,8 km/h (5 Bft)
29.06.2012 06:43 15,6 C 89 % 0,7 l/m 7,2 km/h (2 Bft) O-SO 112 13,8 C 15,0 C 5,5 km/h (1 Bft)
29.06.2012 06:48 15,5 C 89 % 0,0 l/m 4,7 km/h (1 Bft) NO 45 13,7 C 15,4 C 0,0 km/h (0 Bft)
29.06.2012 06:53 15,5 C 91 % 0,7 l/m 1,9 km/h (1 Bft) N 360 14,0 C 15,3 C 2,9 km/h (1 Bft)
29.06.2012 06:58 15,5 C 91 % 0,0 l/m 1,9 km/h (1 Bft) NW 315 14,0 C 15,3 C 3,7 km/h (1 Bft)
29.06.2012 07:03 15,4 C 92 % 0,7 l/m 2,7 km/h (1 Bft) W-NW 292 14,1 C 15,3 C 3,4 km/h (1 Bft)
29.06.2012 07:08 15,4 C 92 % 0,0 l/m 2,3 km/h (1 Bft) N 360 14,1 C 15,3 C 0,0 km/h (0 Bft)
29.06.2012 07:13 15,4 C 92 % 0,0 l/m 2,6 km/h (1 Bft) S-SO 157 14,1 C 15,3 C 3,9 km/h (1 Bft)
29.06.2012 07:18 15,4 C 92 % 0,0 l/m 2,7 km/h (1 Bft) N-NO 22 14,1 C 15,3 C 5,0 km/h (1 Bft)
29.06.2012 07:23 15,4 C 92 % 0,0 l/m 2,4 km/h (1 Bft) W-NW 292 14,1 C 15,3 C 4,2 km/h (1 Bft)
29.06.2012 07:28 15,4 C 92 % 0,0 l/m 2,9 km/h (1 Bft) W 270 14,1 C 15,3 C 6,3 km/h (2 Bft)
29.06.2012 07:33 15,4 C 93 % 0,0 l/m 3,9 km/h (1 Bft) W-SW 247 14,3 C 15,3 C 3,7 km/h (1 Bft)
29.06.2012 07:38 15,4 C 93 % 0,0 l/m 3,9 km/h (1 Bft) W-SW 247 14,3 C 15,4 C 3,7 km/h (1 Bft)
29.06.2012 07:43 15,4 C 93 % 0,0 l/m 3,1 km/h (1 Bft) S 180 14,3 C 15,4 C 2,3 km/h (1 Bft)
29.06.2012 07:48 15,4 C 93 % 0,0 l/m 2,7 km/h (1 Bft) S-SO 157 14,3 C 15,4 C 2,7 km/h (1 Bft)
29.06.2012 07:54 15,4 C 93 % 0,0 l/m 2,7 km/h (1 Bft) S-SO 157 14,3 C 15,4 C 2,7 km/h (1 Bft)
29.06.2012 07:55 15,4 C 93 % 0,0 l/m 2,7 km/h (1 Bft) S-SO 157 14,3 C 15,4 C 2,7 km/h (1 Bft)
29.06.2012 08:00 15,4 C 93 % 0,0 l/m 2,7 km/h (1 Bft) S 180 14,3 C 15,3 C 3,5 km/h (1 Bft)
29.06.2012 08:05 15,4 C 93 % 0,0 l/m 3,1 km/h (1 Bft) W-SW 247 14,3 C 15,3 C 3,9 km/h (1 Bft)
29.06.2012 08:10 15,3 C 93 % 0,0 l/m 3,7 km/h (1 Bft) SW 225 14,2 C 15,4 C 6,0 km/h (2 Bft)
29.06.2012 08:15 15,3 C 93 % 0,0 l/m 3,4 km/h (1 Bft) O 90 14,2 C 15,4 C 2,4 km/h (1 Bft)
29.06.2012 08:20 15,3 C 93 % 0,0 l/m 2,7 km/h (1 Bft) W-NW 292 14,2 C 15,5 C 3,9 km/h (1 Bft)
29.06.2012 08:25 15,4 C 93 % 0,0 l/m 2,7 km/h (1 Bft) N 360 14,3 C 15,6 C 2,3 km/h (1 Bft)
29.06.2012 08:30 15,5 C 93 % 0,0 l/m 1,9 km/h (1 Bft) S 180 14,4 C 15,8 C 4,3 km/h (1 Bft)
29.06.2012 08:35 15,6 C 93 % 0,0 l/m 2,4 km/h (1 Bft) N 360 14,5 C 16,0 C 6,0 km/h (2 Bft)
29.06.2012 08:40 15,8 C 92 % 0,0 l/m 3,2 km/h (1 Bft) O-SO 112 14,5 C 16,4 C 1,6 km/h (1 Bft)
29.06.2012 08:45 15,9 C 92 % 0,0 l/m 3,1 km/h (1 Bft) SW 225 14,6 C 16,5 C 5,1 km/h (1 Bft)
29.06.2012 08:50 16,1 C 91 % 0,0 l/m 2,4 km/h (1 Bft) S 180 14,6 C 17,0 C 3,4 km/h (1 Bft)
29.06.2012 08:55 16,2 C 91 % 0,0 l/m 2,1 km/h (1 Bft) N 360 14,7 C 17,3 C 2,7 km/h (1 Bft)
29.06.2012 09:00 16,6 C 91 % 0,0 l/m 1,6 km/h (1 Bft) N-NW 337 15,1 C 17,8 C 4,8 km/h (1 Bft)
29.06.2012 09:05 16,8 C 90 % 0,0 l/m 1,4 km/h (1 Bft) W 270 15,1 C 18,0 C 4,2 km/h (1 Bft)
29.06.2012 09:10 17,2 C 90 % 0,0 l/m 2,1 km/h (1 Bft) W-SW 247 15,5 C 18,7 C 3,4 km/h (1 Bft)
29.06.2012 09:15 17,5 C 90 % 0,0 l/m 2,1 km/h (1 Bft) O-SO 112 15,8 C 19,1 C 2,6 km/h (1 Bft)
29.06.2012 09:20 17,7 C 89 % 0,0 l/m 1,8 km/h (1 Bft) W-SW 247 15,9 C 19,7 C 0,0 km/h (0 Bft)
29.06.2012 09:25 18,5 C 89 % 0,0 l/m 2,1 km/h (1 Bft) S 180 16,7 C 20,0 C 3,5 km/h (1 Bft)
29.06.2012 09:30 19,2 C 88 % 0,0 l/m 2,3 km/h (1 Bft) S-SW 202 17,2 C 21,3 C 4,8 km/h (1 Bft)
29.06.2012 09:35 19,7 C 87 % 0,0 l/m 2,6 km/h (1 Bft) W-NW 292 17,5 C 21,8 C 3,1 km/h (1 Bft)
29.06.2012 09:40 20,0 C 86 % 0,0 l/m 2,6 km/h (1 Bft) N 360 17,6 C 22,5 C 1,6 km/h (1 Bft)
29.06.2012 09:45 20,6 C 84 % 0,0 l/m 2,3 km/h (1 Bft) W-SW 247 17,8 C 22,8 C 3,2 km/h (1 Bft)
29.06.2012 09:50 21,9 C 82 % 0,0 l/m 1,3 km/h (1 Bft) S-SW 202 18,7 C 24,8 C 0,0 km/h (0 Bft)
29.06.2012 09:55 21,9 C 80 % 0,0 l/m 1,4 km/h (1 Bft) S-SW 202 18,3 C 25,5 C 2,3 km/h (1 Bft)
29.06.2012 10:00 22,0 C 79 % 0,0 l/m 1,3 km/h (1 Bft) S 180 18,2 C 26,2 C 2,1 km/h (1 Bft)
29.06.2012 10:05 21,8 C 81 % 0,0 l/m 1,1 km/h (1 Bft) O-NO 67 18,4 C 26,4 C 0,0 km/h (0 Bft)
29.06.2012 10:10 21,0 C 81 % 0,0 l/m 1,3 km/h (1 Bft) O-SO 112 17,6 C 26,0 C 3,2 km/h (1 Bft)
29.06.2012 10:15 20,8 C 82 % 0,0 l/m 1,3 km/h (1 Bft) N-NO 22 17,6 C 25,1 C 2,3 km/h (1 Bft)
29.06.2012 10:20 22,2 C 79 % 0,0 l/m 1,1 km/h (1 Bft) W-NW 292 18,4 C 25,3 C 1,8 km/h (1 Bft)
29.06.2012 10:25 22,1 C 78 % 0,0 l/m 1,4 km/h (1 Bft) N 360 18,1 C 25,8 C 4,3 km/h (1 Bft)
29.06.2012 10:30 22,2 C 79 % 0,0 l/m 1,6 km/h (1 Bft) S-SW 202 18,4 C 26,3 C 3,2 km/h (1 Bft)
29.06.2012 10:35 22,7 C 79 % 0,0 l/m 1,0 km/h (0 Bft) N 360 18,9 C 26,5 C 1,6 km/h (1 Bft)
29.06.2012 10:40 23,5 C 73 % 0,0 l/m 1,0 km/h (0 Bft) S-SW 202 18,4 C 27,9 C 1,6 km/h (1 Bft)
29.06.2012 10:45 24,0 C 72 % 0,0 l/m 0,8 km/h (0 Bft) NO 45 18,6 C 28,1 C 0,0 km/h (0 Bft)
29.06.2012 10:50 23,5 C 76 % 0,0 l/m 1,6 km/h (1 Bft) W-SW 247 19,0 C 28,6 C 4,3 km/h (1 Bft)
29.06.2012 10:55 23,1 C 75 % 0,0 l/m 2,1 km/h (1 Bft) W 270 18,4 C 28,2 C 0,0 km/h (0 Bft)
29.06.2012 11:00 23,4 C 78 % 0,0 l/m 1,6 km/h (1 Bft) W-SW 247 19,3 C 27,5 C 0,0 km/h (0 Bft)
29.06.2012 11:05 24,4 C 75 % 0,0 l/m 1,0 km/h (0 Bft) N-NW 337 19,7 C 27,7 C 1,6 km/h (1 Bft)
29.06.2012 11:10 25,3 C 74 % 0,0 l/m 0,8 km/h (0 Bft) S 180 20,3 C 29,2 C 2,3 km/h (1 Bft)
29.06.2012 11:15 25,9 C 74 % 0,0 l/m 1,3 km/h (1 Bft) N 360 20,9 C 30,1 C 2,4 km/h (1 Bft)
29.06.2012 11:20 26,7 C 73 % 0,0 l/m 1,1 km/h (1 Bft) SW 225 21,4 C 31,1 C 0,0 km/h (0 Bft)
29.06.2012 11:25 27,0 C 68 % 0,0 l/m 1,1 km/h (1 Bft) S 180 20,6 C 31,4 C 3,2 km/h (1 Bft)
29.06.2012 11:30 27,1 C 73 % 0,7 l/m 0,6 km/h (0 Bft) W-NW 292 21,8 C 32,4 C 0,0 km/h (0 Bft)
29.06.2012 11:35 27,4 C 66 % 0,0 l/m 1,1 km/h (1 Bft) S-SO 157 20,5 C 32,5 C 2,3 km/h (1 Bft)
29.06.2012 11:40 27,7 C 57 % 0,0 l/m 1,6 km/h (1 Bft) N 360 18,4 C 32,8 C 4,7 km/h (1 Bft)
29.06.2012 11:45 27,9 C 69 % 0,0 l/m 1,8 km/h (1 Bft) W-NW 292 21,7 C 32,6 C 2,9 km/h (1 Bft)
29.06.2012 11:50 28,2 C 59 % 0,0 l/m 1,8 km/h (1 Bft) S-SO 157 19,4 C 32,5 C 0,0 km/h (0 Bft)
29.06.2012 11:55 28,4 C 66 % 0,0 l/m 1,0 km/h (0 Bft) O-SO 112 21,4 C 33,1 C 1,8 km/h (1 Bft)
29.06.2012 12:00 28,3 C 55 % 0,0 l/m 1,3 km/h (1 Bft) N-NW 337 18,4 C 33,4 C 2,9 km/h (1 Bft)
29.06.2012 12:05 28,4 C 57 % 0,0 l/m 1,4 km/h (1 Bft) NW 315 19,0 C 32,9 C 0,0 km/h (0 Bft)
29.06.2012 12:10 29,3 C 57 % 0,0 l/m 1,1 km/h (1 Bft) O 90 19,9 C 32,9 C 0,0 km/h (0 Bft)
29.06.2012 12:15 29,8 C 57 % 0,0 l/m 0,5 km/h (0 Bft) W 270 20,3 C 33,4 C 1,8 km/h (1 Bft)
29.06.2012 12:20 29,1 C 53 % 0,0 l/m 1,6 km/h (1 Bft) N 360 18,5 C 33,4 C 5,8 km/h (2 Bft)
29.06.2012 12:25 29,3 C 50 % 0,0 l/m 2,1 km/h (1 Bft) N-NW 337 17,8 C 33,2 C 3,2 km/h (1 Bft)
29.06.2012 12:30 30,2 C 51 % 0,0 l/m 2,4 km/h (1 Bft) W 270 18,9 C 32,6 C 2,7 km/h (1 Bft)
29.06.2012 12:35 30,2 C 48 % 0,0 l/m 1,8 km/h (1 Bft) N-NW 337 17,9 C 32,8 C 3,4 km/h (1 Bft)
29.06.2012 12:40 30,2 C 53 % 0,0 l/m 1,4 km/h (1 Bft) W-NW 292 19,5 C 32,9 C 0,0 km/h (0 Bft)
29.06.2012 12:45 30,1 C 51 % 0,0 l/m 1,4 km/h (1 Bft) NW 315 18,8 C 33,2 C 2,1 km/h (1 Bft)
29.06.2012 12:50 29,9 C 53 % 0,0 l/m 2,3 km/h (1 Bft) W 270 19,3 C 33,2 C 6,8 km/h (2 Bft)
29.06.2012 12:55 30,2 C 50 % 0,0 l/m 3,7 km/h (1 Bft) NW 315 18,6 C 32,8 C 3,2 km/h (1 Bft)
29.06.2012 13:00 29,5 C 43 % 0,0 l/m 4,5 km/h (1 Bft) W-NW 292 15,6 C 32,2 C 5,0 km/h (1 Bft)
29.06.2012 13:05 29,5 C 44 % 0,0 l/m 4,3 km/h (1 Bft) N-NW 337 15,9 C 32,0 C 7,1 km/h (2 Bft)
29.06.2012 13:10 29,7 C 41 % 0,0 l/m 3,2 km/h (1 Bft) W-NW 292 15,0 C 32,3 C 5,3 km/h (1 Bft)
29.06.2012 13:15 29,8 C 40 % 0,0 l/m 3,1 km/h (1 Bft) W-NW 292 14,7 C 32,5 C 4,8 km/h (1 Bft)
29.06.2012 13:20 29,7 C 42 % 0,0 l/m 3,7 km/h (1 Bft) W-SW 247 15,4 C 32,3 C 4,7 km/h (1 Bft)
29.06.2012 13:25 29,8 C 43 % 0,0 l/m 3,4 km/h (1 Bft) W-SW 247 15,8 C 32,2 C 2,3 km/h (1 Bft)
29.06.2012 13:30 29,7 C 40 % 0,0 l/m 3,5 km/h (1 Bft) W-NW 292 14,6 C 32,3 C 7,1 km/h (2 Bft)
29.06.2012 13:35 29,8 C 38 % 0,0 l/m 4,2 km/h (1 Bft) W-NW 292 13,9 C 31,9 C 2,3 km/h (1 Bft)
29.06.2012 13:40 29,9 C 39 % 0,0 l/m 4,3 km/h (1 Bft) W-SW 247 14,4 C 31,7 C 5,1 km/h (1 Bft)
29.06.2012 13:45 30,0 C 39 % 0,0 l/m 4,3 km/h (1 Bft) W-SW 247 14,5 C 31,5 C 8,9 km/h (2 Bft)
29.06.2012 13:50 29,9 C 39 % 0,0 l/m 4,2 km/h (1 Bft) S-SW 202 14,4 C 31,5 C 4,7 km/h (1 Bft)
29.06.2012 13:55 29,9 C 39 % 0,0 l/m 4,8 km/h (1 Bft) W-NW 292 14,4 C 31,6 C 6,8 km/h (2 Bft)
29.06.2012 14:00 30,2 C 35 % 0,0 l/m 5,1 km/h (1 Bft) W 270 13,0 C 31,8 C 4,5 km/h (1 Bft)
29.06.2012 14:05 30,1 C 38 % 0,0 l/m 4,5 km/h (1 Bft) W-NW 292 14,2 C 32,0 C 2,9 km/h (1 Bft)
29.06.2012 14:10 30,3 C 36 % 0,0 l/m 4,0 km/h (1 Bft) W-SW 247 13,5 C 32,5 C 6,0 km/h (2 Bft)
29.06.2012 14:15 30,4 C 37 % 0,0 l/m 5,1 km/h (1 Bft) SW 225 14,0 C 32,3 C 5,0 km/h (1 Bft)
29.06.2012 14:20 30,3 C 36 % 0,0 l/m 5,3 km/h (1 Bft) W-NW 292 13,5 C 32,3 C 7,9 km/h (2 Bft)
29.06.2012 14:25 30,2 C 32 % 0,0 l/m 5,0 km/h (1 Bft) W-SW 247 11,7 C 32,3 C 2,7 km/h (1 Bft)
29.06.2012 14:30 30,2 C 36 % 0,0 l/m 5,3 km/h (1 Bft) N-NW 337 13,4 C 32,4 C 10,0 km/h (2 Bft)
29.06.2012 14:35 30,3 C 38 % 0,0 l/m 5,1 km/h (1 Bft) W-NW 292 14,4 C 32,2 C 2,6 km/h (1 Bft)
29.06.2012 14:40 30,7 C 34 % 0,0 l/m 5,3 km/h (1 Bft) W-SW 247 13,0 C 32,3 C 9,0 km/h (2 Bft)
29.06.2012 14:45 30,4 C 32 % 0,0 l/m 5,3 km/h (1 Bft) NW 315 11,8 C 32,3 C 4,7 km/h (1 Bft)
29.06.2012 14:50 30,3 C 31 % 0,0 l/m 6,0 km/h (2 Bft) N 360 11,3 C 32,2 C 6,9 km/h (2 Bft)
29.06.2012 14:55 30,3 C 31 % 0,0 l/m 6,0 km/h (2 Bft) NW 315 11,3 C 32,2 C 7,7 km/h (2 Bft)
29.06.2012 15:00 30,3 C 31 % 0,0 l/m 6,0 km/h (2 Bft) W-NW 292 11,3 C 32,2 C 10,0 km/h (2 Bft)
29.06.2012 15:05 30,7 C 31 % 0,0 l/m 6,1 km/h (2 Bft) W-SW 247 11,6 C 32,2 C 7,6 km/h (2 Bft)
29.06.2012 15:10 30,4 C 32 % 0,0 l/m 5,8 km/h (2 Bft) S-SW 202 11,8 C 32,4 C 6,4 km/h (2 Bft)
29.06.2012 15:15 30,4 C 32 % 0,0 l/m 6,6 km/h (2 Bft) S 180 11,8 C 32,2 C 10,1 km/h (2 Bft)
29.06.2012 15:20 30,5 C 33 % 0,0 l/m 7,4 km/h (2 Bft) N-NW 337 12,4 C 31,9 C 4,2 km/h (1 Bft)
29.06.2012 15:25 30,7 C 33 % 0,0 l/m 6,4 km/h (2 Bft) S-SW 202 12,6 C 32,0 C 5,3 km/h (1 Bft)
29.06.2012 15:30 30,7 C 33 % 0,0 l/m 6,4 km/h (2 Bft) W 270 12,6 C 32,2 C 10,3 km/h (2 Bft)
29.06.2012 15:35 30,8 C 36 % 0,0 l/m 6,4 km/h (2 Bft) W-SW 247 14,0 C 32,3 C 3,7 km/h (1 Bft)
29.06.2012 15:40 31,0 C 38 % 0,0 l/m 4,2 km/h (1 Bft) W 270 15,0 C 33,1 C 3,7 km/h (1 Bft)
29.06.2012 15:45 30,7 C 34 % 0,0 l/m 4,2 km/h (1 Bft) W-NW 292 13,0 C 33,1 C 9,0 km/h (2 Bft)
29.06.2012 15:50 31,1 C 35 % 0,0 l/m 5,1 km/h (1 Bft) W-NW 292 13,8 C 33,0 C 6,4 km/h (2 Bft)
29.06.2012 15:55 30,9 C 37 % 0,0 l/m 3,5 km/h (1 Bft) N 360 14,5 C 33,6 C 8,4 km/h (2 Bft)
29.06.2012 16:00 30,7 C 36 % 0,0 l/m 4,8 km/h (1 Bft) W 270 13,9 C 33,5 C 9,2 km/h (2 Bft)
29.06.2012 16:05 30,6 C 37 % 0,0 l/m 4,8 km/h (1 Bft) SW 225 14,2 C 33,3 C 4,5 km/h (1 Bft)
29.06.2012 16:10 30,5 C 37 % 0,0 l/m 4,7 km/h (1 Bft) W 270 14,1 C 33,4 C 8,4 km/h (2 Bft)
29.06.2012 16:15 30,5 C 37 % 0,0 l/m 5,1 km/h (1 Bft) O-NO 67 14,1 C 33,1 C 0,0 km/h (0 Bft)
29.06.2012 16:20 30,7 C 37 % 0,0 l/m 5,1 km/h (1 Bft) W 270 14,3 C 33,3 C 9,0 km/h (2 Bft)
29.06.2012 16:25 30,5 C 38 % 0,0 l/m 4,8 km/h (1 Bft) W-NW 292 14,5 C 33,3 C 4,5 km/h (1 Bft)
29.06.2012 16:30 30,4 C 37 % 0,0 l/m 4,5 km/h (1 Bft) O 90 14,0 C 33,4 C 2,1 km/h (1 Bft)
29.06.2012 16:35 30,4 C 38 % 0,0 l/m 3,9 km/h (1 Bft) W-NW 292 14,5 C 33,7 C 5,0 km/h (1 Bft)
29.06.2012 16:40 30,3 C 36 % 0,0 l/m 4,3 km/h (1 Bft) W 270 13,5 C 33,7 C 8,2 km/h (2 Bft)
29.06.2012 16:45 30,3 C 38 % 0,0 l/m 4,5 km/h (1 Bft) W-SW 247 14,4 C 33,7 C 5,0 km/h (1 Bft)
29.06.2012 16:50 29,8 C 39 % 0,0 l/m 4,8 km/h (1 Bft) N-NW 337 14,3 C 33,6 C 4,7 km/h (1 Bft)
29.06.2012 16:55 29,9 C 38 % 0,0 l/m 4,8 km/h (1 Bft) N-NW 337 14,0 C 33,6 C 4,8 km/h (1 Bft)
29.06.2012 17:00 29,5 C 40 % 0,0 l/m 3,9 km/h (1 Bft) W 270 14,5 C 33,9 C 1,9 km/h (1 Bft)
29.06.2012 17:05 29,3 C 42 % 0,0 l/m 3,2 km/h (1 Bft) SW 225 15,0 C 34,2 C 1,9 km/h (1 Bft)
29.06.2012 17:10 29,0 C 40 % 0,0 l/m 4,2 km/h (1 Bft) N-NO 22 14,0 C 33,8 C 6,1 km/h (2 Bft)
29.06.2012 17:15 29,1 C 42 % 0,0 l/m 5,1 km/h (1 Bft) W 270 14,9 C 33,7 C 5,1 km/h (1 Bft)
29.06.2012 17:20 28,9 C 41 % 0,0 l/m 4,7 km/h (1 Bft) W-SW 247 14,3 C 33,7 C 9,2 km/h (2 Bft)
29.06.2012 17:25 28,8 C 43 % 0,0 l/m 5,1 km/h (1 Bft) N-NW 337 15,0 C 33,6 C 8,2 km/h (2 Bft)
29.06.2012 17:30 28,6 C 45 % 0,0 l/m 5,1 km/h (1 Bft) O-NO 67 15,5 C 33,1 C 3,2 km/h (1 Bft)
29.06.2012 17:35 28,8 C 43 % 0,0 l/m 4,8 km/h (1 Bft) W-SW 247 15,0 C 33,2 C 5,3 km/h (1 Bft)
29.06.2012 17:40 28,5 C 46 % 0,0 l/m 4,5 km/h (1 Bft) W 270 15,7 C 33,2 C 8,0 km/h (2 Bft)
29.06.2012 17:45 28,4 C 44 % 0,0 l/m 4,7 km/h (1 Bft) W 270 14,9 C 33,0 C 5,5 km/h (1 Bft)
29.06.2012 17:50 28,6 C 44 % 0,0 l/m 5,1 km/h (1 Bft) W-SW 247 15,1 C 32,7 C 6,1 km/h (2 Bft)
29.06.2012 17:55 28,5 C 45 % 0,0 l/m 5,0 km/h (1 Bft) W 270 15,4 C 32,8 C 3,9 km/h (1 Bft)
29.06.2012 18:00 28,3 C 46 % 0,0 l/m 3,9 km/h (1 Bft) W-NW 292 15,6 C 33,2 C 4,5 km/h (1 Bft)
29.06.2012 18:05 28,4 C 48 % 0,0 l/m 3,9 km/h (1 Bft) W-SW 247 16,3 C 33,3 C 5,1 km/h (1 Bft)
29.06.2012 18:10 28,7 C 45 % 0,0 l/m 3,5 km/h (1 Bft) O-SO 112 15,6 C 33,3 C 3,4 km/h (1 Bft)
29.06.2012 18:15 28,8 C 47 % 0,0 l/m 3,4 km/h (1 Bft) N 360 16,3 C 33,6 C 1,9 km/h (1 Bft)
29.06.2012 18:20 28,1 C 47 % 0,0 l/m 2,6 km/h (1 Bft) N-NO 22 15,7 C 32,9 C 1,9 km/h (1 Bft)
29.06.2012 18:25 27,6 C 49 % 0,0 l/m 2,1 km/h (1 Bft) NW 315 15,9 C 32,5 C 4,2 km/h (1 Bft)
29.06.2012 18:30 27,8 C 48 % 0,0 l/m 1,3 km/h (1 Bft) NO 45 15,8 C 31,2 C 0,0 km/h (0 Bft)
29.06.2012 18:35 28,0 C 49 % 0,0 l/m 1,0 km/h (0 Bft) O-SO 112 16,3 C 31,8 C 1,8 km/h (1 Bft)
29.06.2012 18:40 28,1 C 48 % 0,0 l/m 0,6 km/h (0 Bft) W 270 16,0 C 32,9 C 2,6 km/h (1 Bft)
29.06.2012 18:45 28,2 C 49 % 0,0 l/m 0,8 km/h (0 Bft) W-NW 292 16,5 C 33,1 C 1,9 km/h (1 Bft)
29.06.2012 18:50 28,3 C 49 % 0,0 l/m 2,3 km/h (1 Bft) W 270 16,5 C 33,3 C 2,6 km/h (1 Bft)
29.06.2012 18:55 28,2 C 49 % 0,0 l/m 2,9 km/h (1 Bft) N 360 16,5 C 33,2 C 1,9 km/h (1 Bft)
29.06.2012 19:00 28,0 C 49 % 0,0 l/m 2,6 km/h (1 Bft) W-NW 292 16,3 C 33,4 C 5,3 km/h (1 Bft)
29.06.2012 19:05 27,9 C 49 % 0,0 l/m 2,3 km/h (1 Bft) W 270 16,2 C 33,3 C 3,5 km/h (1 Bft)
29.06.2012 19:10 27,8 C 49 % 0,0 l/m 2,1 km/h (1 Bft) N 360 16,1 C 33,3 C 6,6 km/h (2 Bft)
29.06.2012 19:15 27,7 C 49 % 0,0 l/m 1,3 km/h (1 Bft) N 360 16,0 C 33,4 C 2,7 km/h (1 Bft)
29.06.2012 19:20 27,5 C 49 % 0,0 l/m 1,1 km/h (1 Bft) N 360 15,8 C 33,2 C 2,1 km/h (1 Bft)
29.06.2012 19:25 27,3 C 49 % 0,0 l/m 1,1 km/h (1 Bft) W-NW 292 15,6 C 33,2 C 3,4 km/h (1 Bft)
29.06.2012 19:30 27,2 C 48 % 0,0 l/m 1,1 km/h (1 Bft) SO 135 15,2 C 32,8 C 0,0 km/h (0 Bft)
29.06.2012 19:35 27,0 C 49 % 0,0 l/m 0,8 km/h (0 Bft) NO 45 15,4 C 32,8 C 0,0 km/h (0 Bft)
29.06.2012 19:40 26,8 C 50 % 0,0 l/m 0,6 km/h (0 Bft) O-SO 112 15,5 C 32,7 C 3,5 km/h (1 Bft)
29.06.2012 19:45 26,8 C 50 % 0,0 l/m 0,6 km/h (0 Bft) NO 45 15,5 C 32,6 C 0,0 km/h (0 Bft)
29.06.2012 19:50 26,5 C 50 % 0,0 l/m 1,1 km/h (1 Bft) N-NO 22 15,2 C 31,8 C 0,0 km/h (0 Bft)
29.06.2012 19:55 26,4 C 50 % 0,0 l/m 1,0 km/h (0 Bft) N-NO 22 15,1 C 31,6 C 2,6 km/h (1 Bft)
29.06.2012 20:00 26,1 C 52 % 0,0 l/m 0,8 km/h (0 Bft) NO 45 15,5 C 31,1 C 2,3 km/h (1 Bft)
29.06.2012 20:05 25,9 C 55 % 0,0 l/m 1,0 km/h (0 Bft) NO 45 16,2 C 30,9 C 0,0 km/h (0 Bft)
29.06.2012 20:10 25,9 C 55 % 0,0 l/m 0,6 km/h (0 Bft) O-NO 67 16,2 C 30,0 C 0,0 km/h (0 Bft)
29.06.2012 20:15 25,7 C 56 % 0,0 l/m 0,6 km/h (0 Bft) N-NO 22 16,2 C 29,6 C 0,0 km/h (0 Bft)
29.06.2012 20:20 25,4 C 57 % 0,0 l/m 0,3 km/h (0 Bft) N 360 16,2 C 28,9 C 0,0 km/h (0 Bft)
29.06.2012 20:25 25,3 C 57 % 0,0 l/m 0,3 km/h (0 Bft) N 360 16,2 C 28,7 C 0,0 km/h (0 Bft)
29.06.2012 20:30 25,0 C 59 % 0,0 l/m 0,2 km/h (0 Bft) N-NO 22 16,4 C 28,1 C 1,8 km/h (1 Bft)
29.06.2012 20:35 24,7 C 60 % 0,0 l/m 0,2 km/h (0 Bft) N 360 16,4 C 27,6 C 0,0 km/h (0 Bft)
29.06.2012 20:40 24,3 C 62 % 0,0 l/m 0,2 km/h (0 Bft) N-NO 22 16,5 C 26,8 C 0,0 km/h (0 Bft)
29.06.2012 20:45 24,2 C 62 % 0,0 l/m 0,0 km/h (0 Bft) N-NO 22 16,4 C 26,6 C 0,0 km/h (0 Bft)
29.06.2012 20:50 23,8 C 64 % 0,0 l/m 0,2 km/h (0 Bft) N-NO 22 16,6 C 25,6 C 0,0 km/h (0 Bft)
29.06.2012 20:55 23,5 C 65 % 0,0 l/m 0,2 km/h (0 Bft) N 360 16,5 C 25,0 C 0,0 km/h (0 Bft)
29.06.2012 21:00 23,3 C 66 % 0,0 l/m 0,2 km/h (0 Bft) NO 45 16,6 C 24,3 C 1,9 km/h (1 Bft)
29.06.2012 21:05 23,1 C 66 % 0,0 l/m 0,2 km/h (0 Bft) N-NO 22 16,4 C 24,0 C 0,0 km/h (0 Bft)
29.06.2012 21:10 22,8 C 68 % 0,0 l/m 0,2 km/h (0 Bft) N 360 16,6 C 23,1 C 0,0 km/h (0 Bft)
29.06.2012 21:15 22,7 C 68 % 0,0 l/m 0,0 km/h (0 Bft) N-NW 337 16,5 C 22,8 C 0,0 km/h (0 Bft)
29.06.2012 21:20 22,1 C 69 % 0,0 l/m 0,0 km/h (0 Bft) SO 135 16,1 C 22,3 C 0,0 km/h (0 Bft)
29.06.2012 21:25 21,4 C 71 % 0,0 l/m 0,0 km/h (0 Bft) SO 135 15,9 C 22,1 C 0,0 km/h (0 Bft)
29.06.2012 21:30 21,4 C 73 % 0,0 l/m 0,2 km/h (0 Bft) NO 45 16,4 C 21,3 C 2,4 km/h (1 Bft)
29.06.2012 21:35 21,4 C 73 % 0,0 l/m 0,5 km/h (0 Bft) N-NO 22 16,4 C 21,1 C 2,1 km/h (1 Bft)
29.06.2012 21:40 20,9 C 74 % 0,0 l/m 0,8 km/h (0 Bft) N-NW 337 16,1 C 20,8 C 0,0 km/h (0 Bft)
29.06.2012 21:45 20,5 C 74 % 0,0 l/m 0,6 km/h (0 Bft) O-SO 112 15,7 C 20,7 C 0,0 km/h (0 Bft)
29.06.2012 21:50 20,3 C 75 % 0,0 l/m 0,0 km/h (0 Bft) N-NO 22 15,7 C 20,1 C 0,0 km/h (0 Bft)
29.06.2012 21:55 20,0 C 75 % 0,0 l/m 0,0 km/h (0 Bft) NO 45 15,4 C 19,8 C 0,0 km/h (0 Bft)
29.06.2012 22:00 19,6 C 76 % 0,0 l/m 0,0 km/h (0 Bft) W-NW 292 15,2 C 19,6 C 0,0 km/h (0 Bft)
29.06.2012 22:05 19,6 C 78 % 0,0 l/m 0,0 km/h (0 Bft) N 360 15,7 C 19,4 C 1,8 km/h (1 Bft)
29.06.2012 22:10 19,9 C 78 % 0,0 l/m 0,6 km/h (0 Bft) N-NO 22 15,9 C 19,4 C 2,6 km/h (1 Bft)
29.06.2012 22:15 19,8 C 78 % 0,0 l/m 0,8 km/h (0 Bft) NO 45 15,8 C 19,5 C 0,0 km/h (0 Bft)
29.06.2012 22:20 19,3 C 78 % 0,0 l/m 0,8 km/h (0 Bft) NO 45 15,4 C 19,3 C 0,0 km/h (0 Bft)
29.06.2012 22:25 19,2 C 78 % 0,0 l/m 0,6 km/h (0 Bft) SO 135 15,3 C 19,2 C 1,8 km/h (1 Bft)
29.06.2012 22:30 19,6 C 79 % 0,0 l/m 0,2 km/h (0 Bft) N 360 15,9 C 19,0 C 1,6 km/h (1 Bft)
29.06.2012 22:35 19,6 C 79 % 0,0 l/m 0,5 km/h (0 Bft) SO 135 15,9 C 19,1 C 2,4 km/h (1 Bft)
29.06.2012 22:40 19,5 C 79 % 0,0 l/m 0,6 km/h (0 Bft) N-NO 22 15,8 C 19,2 C 0,0 km/h (0 Bft)
29.06.2012 22:45 19,6 C 79 % 0,0 l/m 0,5 km/h (0 Bft) N 360 15,9 C 19,2 C 0,0 km/h (0 Bft)
29.06.2012 22:50 19,5 C 79 % 0,0 l/m 0,0 km/h (0 Bft) NO 45 15,8 C 19,1 C 0,0 km/h (0 Bft)
29.06.2012 22:55 19,5 C 79 % 0,0 l/m 0,2 km/h (0 Bft) N-NO 22 15,8 C 19,0 C 0,0 km/h (0 Bft)
29.06.2012 23:00 19,5 C 79 % 0,0 l/m 0,3 km/h (0 Bft) N-NO 22 15,8 C 19,0 C 0,0 km/h (0 Bft)
29.06.2012 23:05 19,4 C 79 % 0,0 l/m 0,3 km/h (0 Bft) NO 45 15,7 C 19,1 C 1,8 km/h (1 Bft)
29.06.2012 23:10 19,2 C 79 % 0,0 l/m 0,5 km/h (0 Bft) O-SO 112 15,5 C 19,1 C 0,0 km/h (0 Bft)
29.06.2012 23:15 19,2 C 79 % 0,0 l/m 0,2 km/h (0 Bft) NO 45 15,5 C 19,0 C 0,0 km/h (0 Bft)
29.06.2012 23:20 19,0 C 79 % 0,0 l/m 0,0 km/h (0 Bft) N 360 15,3 C 18,9 C 0,0 km/h (0 Bft)
29.06.2012 23:25 18,9 C 79 % 0,0 l/m 0,0 km/h (0 Bft) O 90 15,2 C 18,8 C 0,0 km/h (0 Bft)
29.06.2012 23:30 18,8 C 81 % 0,0 l/m 0,0 km/h (0 Bft) SO 135 15,5 C 18,6 C 0,0 km/h (0 Bft)
29.06.2012 23:35 18,5 C 80 % 0,0 l/m 0,0 km/h (0 Bft) N-NW 337 15,0 C 18,5 C 0,0 km/h (0 Bft)
29.06.2012 23:40 18,4 C 81 % 0,0 l/m 0,0 km/h (0 Bft) S 180 15,1 C 18,4 C 0,0 km/h (0 Bft)
29.06.2012 23:45 18,3 C 81 % 0,0 l/m 0,0 km/h (0 Bft) NO 45 15,0 C 18,2 C 0,0 km/h (0 Bft)
29.06.2012 23:50 18,4 C 80 % 0,0 l/m 0,2 km/h (0 Bft) NO 45 14,9 C 18,2 C 0,0 km/h (0 Bft)
29.06.2012 23:55 18,3 C 80 % 0,0 l/m 0,0 km/h (0 Bft) O 90 14,8 C 18,1 C 0,0 km/h (0 Bft)
_ Min-Zeit 08:20 15:05 - 23:55 - - 15:00 06:40 23:55
Minimum _ 15,3 C 31 % - 0,0 km/h (0 Bft) - - 11,3 C 11,5 C 0,0 km/h (0 Bft)
_ Max-Zeit 15:50 08:35 06:40 06:35 - - 11:30 17:05 06:40
Maximum _ 31,1 C 93 % 2,7 l/m 17,2 km/h
SO (3 Bft)
- - 21,8 C 34,2 C 37,8 km/h
SO (5 Bft)
Durchschnitt _ 22,5 C 65 % #7,6 l/m 2,1 km/h (1 Bft) W-NW - 14,9 C 24,3 C 3,0 km/h (1 Bft)